Time;durP1;ratioP1;P1;durP2;ratioP2;P2;SDS_P1;SDS_P2;PMS_P1;PMS_P2;Temp;Humidity;BMP_temperature;BMP_pressure;BME280_temperature;BME280_humidity;BME280_pressure;Samples;Min_cycle;Max_cycle;Signal;HPM_P1;HPM_P2
2022/06/08 00:01:38;;;;;;;;;;;16.70;99.90;;;;;;10271269;23;84241;-56
2022/06/08 00:06:38;;;;;;;;;;;16.60;99.90;;;;;;10246098;28;84443;-58
2022/06/08 00:11:39;;;;;;;;;;;16.60;99.90;;;;;;10246375;28;84120;-58
2022/06/08 00:16:40;;;;;;;;;;;16.60;99.90;;;;;;10247738;28;83365;-58
2022/06/08 00:21:40;;;;;;;;;;;16.60;99.90;;;;;;10244682;28;83323;-57
2022/06/08 00:26:41;;;;;;;;;;;16.60;99.90;;;;;;10205338;28;85185;-58
2022/06/08 00:31:41;;;;;;;;;;;16.60;99.90;;;;;;10206995;28;85107;-54
2022/06/08 00:36:42;;;;;;;;;;;16.60;99.90;;;;;;10246769;28;83931;-58
2022/06/08 00:41:42;;;;;;;;;;;16.60;99.90;;;;;;10243608;28;84063;-58
2022/06/08 00:46:43;;;;;;;;;;;16.40;99.90;;;;;;10215577;28;83544;-58
2022/06/08 00:51:44;;;;;;;;;;;16.40;99.90;;;;;;10241650;28;85098;-56
2022/06/08 00:56:47;;;;;;;;;;;16.50;99.90;;;;;;10204346;28;85507;-55
2022/06/08 01:01:47;;;;;;;;;;;16.50;99.90;;;;;;10207428;28;84185;-57
2022/06/08 01:06:52;;;;;;;;;;;16.50;99.90;;;;;;10244881;28;86130;-56
2022/06/08 01:11:55;;;;;;;;;;;16.50;99.90;;;;;;10247888;28;84050;-53
2022/06/08 01:17:06;;;;;;;;;;;16.40;99.90;;;;;;10212480;28;83333;-60
2022/06/08 01:22:08;;;;;;;;;;;16.30;99.90;;;;;;10216426;28;84139;-59
2022/06/08 01:27:21;;;;;;;;;;;16.10;99.90;;;;;;10250971;28;85201;-58
2022/06/08 01:32:23;;;;;;;;;;;16.00;99.90;;;;;;10243496;28;84980;-58
2022/06/08 01:37:43;;;;;;;;;;;15.90;99.90;;;;;;10210248;28;84566;-54
2022/06/08 01:43:02;;;;;;;;;;;16.00;99.90;;;;;;10218534;28;85199;-57
2022/06/08 01:48:09;;;;;;;;;;;16.00;99.90;;;;;;10248541;28;85203;-60
2022/06/08 01:53:18;;;;;;;;;;;15.90;99.90;;;;;;10249694;28;83470;-58
2022/06/08 01:58:23;;;;;;;;;;;15.90;99.90;;;;;;10250041;28;84969;-58
2022/06/08 02:03:28;;;;;;;;;;;15.90;99.90;;;;;;10233200;28;86030;-59
2022/06/08 02:08:45;;;;;;;;;;;15.90;99.90;;;;;;10209503;28;86143;-56
2022/06/08 02:13:54;;;;;;;;;;;15.70;99.90;;;;;;10229515;28;84002;-56
2022/06/08 02:19:00;;;;;;;;;;;15.60;99.90;;;;;;10248691;28;85077;-58
2022/06/08 02:24:09;;;;;;;;;;;15.60;99.90;;;;;;10229716;28;83293;-58
2022/06/08 02:29:12;;;;;;;;;;;15.50;99.90;;;;;;10208776;28;86258;-55
2022/06/08 02:34:28;;;;;;;;;;;15.40;99.90;;;;;;10214404;28;86030;-59
2022/06/08 02:39:32;;;;;;;;;;;15.30;99.90;;;;;;10251691;28;85727;-54
2022/06/08 02:44:35;;;;;;;;;;;15.30;99.90;;;;;;10231034;28;85481;-58
2022/06/08 02:49:36;;;;;;;;;;;15.20;99.90;;;;;;10219077;28;85175;-57
2022/06/08 02:54:41;;;;;;;;;;;15.20;99.90;;;;;;10277362;28;85566;-57
2022/06/08 02:59:41;;;;;;;;;;;15.10;99.90;;;;;;10287816;28;85168;-60
2022/06/08 03:04:46;;;;;;;;;;;15.20;99.90;;;;;;10236964;28;86173;-57
2022/06/08 03:09:48;;;;;;;;;;;15.20;99.90;;;;;;10229918;28;86203;-57
2022/06/08 03:14:49;;;;;;;;;;;15.30;99.90;;;;;;10226819;28;85365;-57
2022/06/08 03:19:50;;;;;;;;;;;15.30;99.90;;;;;;10208536;28;85979;-58
2022/06/08 03:24:52;;;;;;;;;;;15.30;99.90;;;;;;10233574;28;85113;-58
2022/06/08 03:29:54;;;;;;;;;;;15.40;99.90;;;;;;10253765;28;84330;-55
2022/06/08 03:34:55;;;;;;;;;;;15.40;99.90;;;;;;10260217;28;83991;-53
2022/06/08 03:39:55;;;;;;;;;;;15.40;99.90;;;;;;10248306;28;83457;-58
2022/06/08 03:44:56;;;;;;;;;;;15.50;99.90;;;;;;10220005;28;84136;-57
2022/06/08 03:49:59;;;;;;;;;;;15.40;99.90;;;;;;10206080;28;85937;-57
2022/06/08 03:55:01;;;;;;;;;;;15.50;99.90;;;;;;10209183;28;83273;-57
2022/06/08 04:00:03;;;;;;;;;;;15.40;99.90;;;;;;10207108;28;83517;-56
2022/06/08 04:05:07;;;;;;;;;;;15.50;99.90;;;;;;10235582;28;83887;-58
2022/06/08 04:10:08;;;;;;;;;;;15.60;99.90;;;;;;10245929;28;85395;-61
2022/06/08 04:15:09;;;;;;;;;;;15.60;99.90;;;;;;10216586;28;85004;-57
2022/06/08 04:20:12;;;;;;;;;;;15.70;99.90;;;;;;10205151;28;85720;-59
2022/06/08 04:25:14;;;;;;;;;;;15.70;99.90;;;;;;10235033;28;85162;-56
2022/06/08 04:30:16;;;;;;;;;;;15.70;99.90;;;;;;10244437;28;84995;-57
2022/06/08 04:35:18;;;;;;;;;;;15.80;99.90;;;;;;10243242;28;86370;-59
2022/06/08 04:40:19;;;;;;;;;;;16.00;99.90;;;;;;10243949;28;85172;-60
2022/06/08 04:45:23;;;;;;;;;;;16.10;99.90;;;;;;10231114;28;85260;-61
2022/06/08 04:50:25;;;;;;;;;;;16.00;99.90;;;;;;10233717;28;83975;-56
2022/06/08 04:55:26;;;;;;;;;;;16.00;99.90;;;;;;10247489;28;84173;-58
2022/06/08 05:00:27;;;;;;;;;;;16.10;99.90;;;;;;10250873;28;85232;-56
2022/06/08 05:05:33;;;;;;;;;;;16.10;99.90;;;;;;10234119;28;86054;-59
2022/06/08 05:10:36;;;;;;;;;;;16.30;99.90;;;;;;10244583;28;83909;-57
2022/06/08 05:15:39;;;;;;;;;;;16.50;99.90;;;;;;10255320;28;86752;-56
2022/06/08 05:20:42;;;;;;;;;;;16.70;99.90;;;;;;10230674;28;85957;-59
2022/06/08 05:25:44;;;;;;;;;;;16.70;99.90;;;;;;10245879;28;86664;-57
2022/06/08 05:30:45;;;;;;;;;;;16.80;99.90;;;;;;10241438;28;86203;-56
2022/06/08 05:35:46;;;;;;;;;;;17.00;99.90;;;;;;10241069;28;85139;-57
2022/06/08 05:40:49;;;;;;;;;;;17.20;99.90;;;;;;10238656;28;86698;-57
2022/06/08 05:45:50;;;;;;;;;;;17.20;99.90;;;;;;10248146;28;86120;-58
2022/06/08 05:50:51;;;;;;;;;;;17.30;99.90;;;;;;10250305;28;86031;-56
2022/06/08 05:55:55;;;;;;;;;;;17.50;99.90;;;;;;10227166;28;86956;-57
2022/06/08 06:00:59;;;;;;;;;;;17.80;99.90;;;;;;10303108;23;85823;-52
2022/06/08 06:05:59;;;;;;;;;;;17.80;99.90;;;;;;10328370;28;85986;-50
2022/06/08 06:11:00;;;;;;;;;;;17.90;99.90;;;;;;10329167;28;84724;-51
2022/06/08 06:16:06;;;;;;;;;;;18.10;99.90;;;;;;10328246;28;85925;-52
2022/06/08 06:21:08;;;;;;;;;;;18.30;99.90;;;;;;10327207;28;87088;-49
2022/06/08 06:26:21;;;;;;;;;;;18.50;99.90;;;;;;10326981;28;85856;-49
2022/06/08 06:31:49;;;;;;;;;;;18.70;99.90;;;;;;10326247;28;84781;-47
2022/06/08 06:36:54;;;;;;;;;;;19.00;1.00;;;;;;10311493;28;85974;-51
2022/06/08 06:41:57;;;;;;;;;;;19.30;1.00;;;;;;10326874;28;86118;-48
2022/06/08 06:47:01;;;;;;;;;;;19.50;1.00;;;;;;10326232;28;86851;-52
2022/06/08 06:52:14;;;;;;;;;;;19.60;1.00;;;;;;10326858;28;87431;-48
2022/06/08 06:57:15;;;;;;;;;;;19.90;1.00;;;;;;10326807;28;86068;-49
2022/06/08 07:02:18;;;;;;;;;;;20.10;1.00;;;;;;10325996;28;86318;-49
2022/06/08 07:07:20;;;;;;;;;;;20.50;1.00;;;;;;10325679;28;85894;-48
2022/06/08 07:12:21;;;;;;;;;;;20.60;99.90;;;;;;10325217;28;86659;-51
2022/06/08 07:17:26;;;;;;;;;;;20.70;99.90;;;;;;10326388;28;85666;-49
2022/06/08 07:22:27;;;;;;;;;;;20.80;1.00;;;;;;10325583;28;84354;-48
2022/06/08 07:27:28;;;;;;;;;;;21.00;1.00;;;;;;10326824;28;84089;-48
2022/06/08 07:32:29;;;;;;;;;;;20.90;1.00;;;;;;10324918;28;84949;-47
2022/06/08 07:37:29;;;;;;;;;;;20.90;1.00;;;;;;10325745;28;84700;-47
2022/06/08 07:42:30;;;;;;;;;;;21.10;1.00;;;;;;10326593;28;84196;-49
2022/06/08 07:47:30;;;;;;;;;;;21.10;1.00;;;;;;10327068;28;84098;-48
2022/06/08 07:52:31;;;;;;;;;;;21.00;1.00;;;;;;10325934;28;84748;-53
2022/06/08 07:57:33;;;;;;;;;;;21.10;1.00;;;;;;10326740;28;84135;-51
2022/06/08 08:02:34;;;;;;;;;;;21.40;99.90;;;;;;10326398;28;84102;-50
2022/06/08 08:07:34;;;;;;;;;;;21.60;1.00;;;;;;10326322;28;84110;-50
2022/06/08 08:12:36;;;;;;;;;;;22.70;1.00;;;;;;10327575;28;84992;-52
2022/06/08 08:17:36;;;;;;;;;;;23.90;1.00;;;;;;10331722;28;84999;-50
2022/06/08 08:22:37;;;;;;;;;;;23.70;99.90;;;;;;10333188;28;84238;-52
2022/06/08 08:27:38;;;;;;;;;;;23.60;1.00;;;;;;10333840;28;84969;-49
2022/06/08 08:32:38;;;;;;;;;;;23.50;1.00;;;;;;10332469;28;84423;-51
2022/06/08 08:37:39;;;;;;;;;;;23.00;1.00;;;;;;10335387;28;84023;-52
2022/06/08 08:42:41;;;;;;;;;;;22.80;1.00;;;;;;10332532;28;84112;-51
2022/06/08 08:48:00;;;;;;;;;;;22.90;99.90;;;;;;10329264;28;85566;-52
2022/06/08 08:53:22;;;;;;;;;;;23.50;99.90;;;;;;10323529;28;85886;-51
2022/06/08 08:58:27;;;;;;;;;;;23.30;1.00;;;;;;10325445;28;84176;-48
2022/06/08 09:03:30;;;;;;;;;;;23.50;1.00;;;;;;10324906;28;84772;-53
2022/06/08 09:08:31;;;;;;;;;;;23.60;1.00;;;;;;10306746;28;85013;-51
2022/06/08 09:13:40;;;;;;;;;;;23.90;1.00;;;;;;10322713;28;85735;-49
2022/06/08 09:18:41;;;;;;;;;;;23.50;1.00;;;;;;10323361;28;84905;-45
2022/06/08 09:23:42;;;;;;;;;;;23.90;83.10;;;;;;10323008;28;84946;-50
2022/06/08 09:28:43;;;;;;;;;;;24.20;99.90;;;;;;10324844;28;85661;-50
2022/06/08 09:33:44;;;;;;;;;;;25.30;99.90;;;;;;10330974;28;84886;-51
2022/06/08 09:38:45;;;;;;;;;;;25.10;1.00;;;;;;10336720;28;84732;-53
2022/06/08 09:44:04;;;;;;;;;;;25.50;1.00;;;;;;10329568;28;87068;-51
2022/06/08 09:54:27;;;;;;;;;;;26.10;1.00;;;;;;10330299;28;84140;-52
2022/06/08 09:59:35;;;;;;;;;;;25.10;99.90;;;;;;10328583;28;84781;-51
2022/06/08 10:04:37;;;;;;;;;;;25.80;1.00;;;;;;10329021;28;86462;-51
2022/06/08 10:09:59;;;;;;;;;;;27.70;1.00;;;;;;10329926;28;84201;-52
2022/06/08 10:15:02;;;;;;;;;;;26.70;99.90;;;;;;10330465;28;84251;-48
2022/06/08 10:20:12;;;;;;;;;;;25.60;99.90;;;;;;10327874;28;86432;-50
2022/06/08 10:25:12;;;;;;;;;;;24.70;1.00;;;;;;10329000;28;85015;-55
2022/06/08 10:30:41;;;;;;;;;;;24.00;99.90;;;;;;10329102;28;84134;-50
2022/06/08 10:35:43;;;;;;;;;;;23.90;1.00;;;;;;10324630;28;86000;-49
2022/06/08 10:40:47;;;;;;;;;;;23.40;1.00;;;;;;10327989;28;84212;-51
2022/06/08 10:45:52;;;;;;;;;;;23.00;1.00;;;;;;10328310;28;85073;-50
2022/06/08 10:51:05;;;;;;;;;;;22.80;1.00;;;;;;10328546;28;85095;-48
2022/06/08 10:56:32;;;;;;;;;;;22.40;99.90;;;;;;10328256;28;84120;-49
2022/06/08 11:01:55;;;;;;;;;;;22.10;1.00;;;;;;10311916;28;84208;-51
2022/06/08 11:07:00;;;;;;;;;;;22.00;99.90;;;;;;10328543;28;83998;-49
2022/06/08 11:12:03;;;;;;;;;;;22.00;99.90;;;;;;10326391;28;86211;-51
2022/06/08 11:17:05;;;;;;;;;;;21.80;1.00;;;;;;10329038;28;85152;-51
2022/06/08 11:22:13;;;;;;;;;;;21.70;1.00;;;;;;10327892;28;84096;-51
2022/06/08 11:27:20;;;;;;;;;;;21.60;99.90;;;;;;10328376;28;84131;-53
2022/06/08 11:32:33;;;;;;;;;;;21.70;99.90;;;;;;10326078;28;87147;-50
2022/06/08 11:37:39;;;;;;;;;;;21.70;99.90;;;;;;10327918;28;84985;-50
2022/06/08 11:42:58;;;;;;;;;;;21.90;1.00;;;;;;10326764;28;84142;-53
2022/06/08 11:48:08;;;;;;;;;;;22.00;1.00;;;;;;10309611;28;85745;-49
2022/06/08 11:53:16;;;;;;;;;;;22.30;1.00;;;;;;10326667;28;85612;-50
2022/06/08 11:58:20;;;;;;;;;;;22.70;99.90;;;;;;10326889;28;84940;-51
2022/06/08 12:03:27;;;;;;;;;;;22.80;99.90;;;;;;10326587;28;84907;-50
2022/06/08 12:08:37;;;;;;;;;;;23.10;1.00;;;;;;10326028;28;84976;-49
2022/06/08 12:13:39;;;;;;;;;;;23.10;1.00;;;;;;10326375;28;84067;-53
2022/06/08 12:18:44;;;;;;;;;;;23.00;1.00;;;;;;10326595;28;85733;-51
2022/06/08 12:23:55;;;;;;;;;;;23.00;1.00;;;;;;10325933;28;84854;-53
2022/06/08 12:29:19;;;;;;;;;;;23.10;99.90;;;;;;10325697;28;84401;-48
2022/06/08 12:34:32;;;;;;;;;;;23.50;99.90;;;;;;10324721;28;84803;-50
2022/06/08 12:39:33;;;;;;;;;;;24.10;1.00;;;;;;10325661;28;84136;-51
2022/06/08 12:44:35;;;;;;;;;;;24.20;1.00;;;;;;10326428;28;84437;-51
2022/06/08 12:49:40;;;;;;;;;;;24.00;1.00;;;;;;10325285;28;84149;-51
2022/06/08 12:54:40;;;;;;;;;;;24.10;1.00;;;;;;10307903;28;87385;-51
2022/06/08 12:59:41;;;;;;;;;;;22.50;99.90;;;;;;10326238;28;85245;-54
2022/06/08 13:04:42;;;;;;;;;;;21.20;99.90;;;;;;10329476;28;84905;-48
2022/06/08 13:09:44;;;;;;;;;;;20.50;1.00;;;;;;10333124;28;84248;-48
2022/06/08 13:14:44;;;;;;;;;;;20.10;1.00;;;;;;10333319;28;84074;-48
2022/06/08 13:19:46;;;;;;;;;;;19.40;1.00;;;;;;10332550;28;84722;-50
2022/06/08 13:24:48;;;;;;;;;;;19.10;1.00;;;;;;10331378;28;86910;-49
2022/06/08 13:29:48;;;;;;;;;;;18.60;99.90;;;;;;10331786;28;85062;-49
2022/06/08 13:34:49;;;;;;;;;;;18.70;99.90;;;;;;10330712;28;84981;-49
2022/06/08 13:39:51;;;;;;;;;;;18.90;99.90;;;;;;10331383;28;84450;-49
2022/06/08 13:44:54;;;;;;;;;;;19.20;99.90;;;;;;10331701;28;84945;-48
2022/06/08 13:50:00;;;;;;;;;;;19.00;99.90;;;;;;10329345;28;85667;-51
2022/06/08 13:55:03;;;;;;;;;;;19.10;99.90;;;;;;10329877;28;85319;-52
2022/06/08 14:00:05;;;;;;;;;;;19.10;62.20;;;;;;10330463;28;84237;-49
2022/06/08 14:05:18;;;;;;;;;;;19.00;99.90;;;;;;10330232;28;84079;-47
2022/06/08 14:15:42;;;;;;;;;;;19.40;99.90;;;;;;10322830;28;84225;-51
2022/06/08 14:20:42;;;;;;;;;;;19.50;21.60;;;;;;10331012;28;84349;-52
2022/06/08 14:25:44;;;;;;;;;;;19.60;1.00;;;;;;10327347;28;85388;-56
2022/06/08 14:30:45;;;;;;;;;;;19.50;1.00;;;;;;10316119;28;84370;-54
2022/06/08 14:35:48;;;;;;;;;;;19.40;1.00;;;;;;10299539;28;85047;-52
2022/06/08 14:40:49;;;;;;;;;;;19.30;1.00;;;;;;10304243;28;84038;-50
2022/06/08 14:45:50;;;;;;;;;;;19.20;1.00;;;;;;10328233;28;84988;-48
2022/06/08 14:50:51;;;;;;;;;;;19.10;1.00;;;;;;10350596;28;84180;-52
2022/06/08 15:01:17;;;;;;;;;;;19.10;1.00;;;;;;10341820;28;84791;-48
2022/06/08 15:06:18;;;;;;;;;;;19.10;1.00;;;;;;10349412;28;84155;-50
2022/06/08 15:16:47;;;;;;;;;;;18.80;4.40;;;;;;10325219;28;84167;-52
2022/06/08 15:21:48;;;;;;;;;;;18.60;1.00;;;;;;10328648;28;85121;-51
2022/06/08 15:26:49;;;;;;;;;;;18.70;1.00;;;;;;10329458;28;86044;-50
2022/06/08 15:31:50;;;;;;;;;;;18.80;1.00;;;;;;10323054;28;84360;-53
2022/06/08 15:36:54;;;;;;;;;;;18.90;1.00;;;;;;10320932;28;84857;-49
2022/06/08 15:41:54;;;;;;;;;;;18.70;1.00;;;;;;10300442;28;84909;-49
2022/06/08 15:46:57;;;;;;;;;;;18.50;1.00;;;;;;10298083;28;85459;-50
2022/06/08 15:52:02;;;;;;;;;;;18.30;1.00;;;;;;10300745;28;85020;-57
2022/06/08 15:57:03;;;;;;;;;;;18.30;1.00;;;;;;10299501;28;85403;-53
2022/06/08 16:02:04;;;;;;;;;;;18.40;1.00;;;;;;10298470;28;84246;-56
2022/06/08 16:07:06;;;;;;;;;;;18.50;1.40;;;;;;10306534;28;84328;-50
2022/06/08 16:12:08;;;;;;;;;;;18.50;40.30;;;;;;10293249;28;86918;-52
2022/06/08 16:17:14;;;;;;;;;;;18.50;33.70;;;;;;10302540;28;86072;-52
2022/06/08 16:22:15;;;;;;;;;;;18.50;91.20;;;;;;10299454;28;84339;-54
2022/06/08 16:27:16;;;;;;;;;;;18.30;99.90;;;;;;10318035;28;84538;-53
2022/06/08 16:32:16;;;;;;;;;;;17.90;99.90;;;;;;10324923;28;84875;-52
2022/06/08 16:37:17;;;;;;;;;;;17.50;99.90;;;;;;10309652;28;85129;-46
2022/06/08 16:42:17;;;;;;;;;;;17.30;99.90;;;;;;10297029;28;85505;-56
2022/06/08 16:47:18;;;;;;;;;;;17.20;99.90;;;;;;10294559;28;84027;-58
2022/06/08 16:52:20;;;;;;;;;;;16.80;99.90;;;;;;10311542;28;85502;-57
2022/06/08 17:02:39;;;;;;;;;;;16.60;99.90;;;;;;10312146;28;84950;-58
2022/06/08 17:07:41;;;;;;;;;;;16.70;99.90;;;;;;10300165;28;84867;-59
2022/06/08 17:12:42;;;;;;;;;;;16.40;99.90;;;;;;10308488;28;84822;-56
2022/06/08 17:17:43;;;;;;;;;;;16.30;99.90;;;;;;10313267;28;84736;-55
2022/06/08 17:22:43;;;;;;;;;;;16.20;99.90;;;;;;10312116;28;84634;-55
2022/06/08 17:27:45;;;;;;;;;;;16.20;99.90;;;;;;10316426;28;85308;-62
2022/06/08 17:32:45;;;;;;;;;;;16.20;99.90;;;;;;10315713;28;84292;-56
2022/06/08 17:37:46;;;;;;;;;;;16.20;99.90;;;;;;10312123;28;84257;-55
2022/06/08 17:42:47;;;;;;;;;;;16.20;99.90;;;;;;10326228;28;84054;-58
2022/06/08 17:47:48;;;;;;;;;;;16.20;99.90;;;;;;10320717;28;84901;-53
2022/06/08 17:52:49;;;;;;;;;;;16.10;99.90;;;;;;10312447;28;84234;-46
2022/06/08 17:57:50;;;;;;;;;;;16.10;99.90;;;;;;10324104;28;84266;-53
2022/06/08 18:02:51;;;;;;;;;;;16.20;99.90;;;;;;10314305;22;84868;-48
2022/06/08 18:07:51;;;;;;;;;;;16.20;99.90;;;;;;10284388;28;84274;-49
2022/06/08 18:12:52;;;;;;;;;;;16.20;99.90;;;;;;10274165;28;85225;-48
2022/06/08 18:17:53;;;;;;;;;;;16.20;99.90;;;;;;10278513;28;85076;-48
2022/06/08 18:22:54;;;;;;;;;;;16.20;99.90;;;;;;10269852;28;84051;-47
2022/06/08 18:27:57;;;;;;;;;;;16.00;99.90;;;;;;10236207;28;84715;-50
2022/06/08 18:32:58;;;;;;;;;;;16.00;99.90;;;;;;10233418;28;86095;-49
2022/06/08 18:37:58;;;;;;;;;;;15.90;99.90;;;;;;10238819;28;84728;-46
2022/06/08 18:43:05;;;;;;;;;;;16.00;99.90;;;;;;10231543;28;84290;-50
2022/06/08 18:48:06;;;;;;;;;;;16.10;99.90;;;;;;10250495;28;85813;-46
2022/06/08 18:53:06;;;;;;;;;;;16.10;99.90;;;;;;10231489;28;84918;-47
2022/06/08 18:58:08;;;;;;;;;;;16.10;99.90;;;;;;10248845;28;85864;-48
2022/06/08 19:03:09;;;;;;;;;;;16.10;99.90;;;;;;10235286;28;84723;-50
2022/06/08 19:08:10;;;;;;;;;;;16.20;99.90;;;;;;10232491;28;85133;-49
2022/06/08 19:13:10;;;;;;;;;;;16.20;99.90;;;;;;10231719;28;84985;-48
2022/06/08 19:23:34;;;;;;;;;;;16.20;99.90;;;;;;10232014;28;85057;-48
2022/06/08 19:28:35;;;;;;;;;;;16.40;99.90;;;;;;10231517;28;84191;-51
2022/06/08 19:33:54;;;;;;;;;;;16.50;99.90;;;;;;10228092;28;84222;-48
2022/06/08 19:38:55;;;;;;;;;;;16.50;99.90;;;;;;10215159;28;85180;-49
2022/06/08 19:43:58;;;;;;;;;;;16.50;99.90;;;;;;10219433;28;85629;-47
2022/06/08 19:48:59;;;;;;;;;;;16.40;99.90;;;;;;10247165;28;84393;-46
2022/06/08 19:54:00;;;;;;;;;;;16.30;99.90;;;;;;10231637;28;84087;-46
2022/06/08 19:59:01;;;;;;;;;;;16.10;99.90;;;;;;10233164;28;84277;-51
2022/06/08 20:04:02;;;;;;;;;;;15.90;99.90;;;;;;10232354;28;84432;-46
2022/06/08 20:09:03;;;;;;;;;;;15.90;99.90;;;;;;10206784;28;84078;-48
2022/06/08 20:14:03;;;;;;;;;;;15.80;99.90;;;;;;10219514;28;84878;-48
2022/06/08 20:19:04;;;;;;;;;;;15.80;99.90;;;;;;10216333;28;85041;-49
2022/06/08 20:24:04;;;;;;;;;;;15.80;99.90;;;;;;10218760;28;84972;-45
2022/06/08 20:29:05;;;;;;;;;;;15.80;99.90;;;;;;10245656;28;85381;-49
2022/06/08 20:34:08;;;;;;;;;;;15.80;99.90;;;;;;10230072;28;85818;-48
2022/06/08 20:39:08;;;;;;;;;;;15.70;99.90;;;;;;10215636;28;85015;-49
2022/06/08 20:44:12;;;;;;;;;;;15.60;99.90;;;;;;10245595;28;84953;-47
2022/06/08 20:49:13;;;;;;;;;;;15.60;99.90;;;;;;10247341;28;84128;-47
2022/06/08 20:54:13;;;;;;;;;;;15.50;99.90;;;;;;10236713;28;84254;-46
2022/06/08 20:59:14;;;;;;;;;;;15.50;99.90;;;;;;10246341;28;84276;-47
2022/06/08 21:04:15;;;;;;;;;;;15.40;99.90;;;;;;10230777;28;85200;-47
2022/06/08 21:09:15;;;;;;;;;;;15.30;99.90;;;;;;10204779;28;84883;-47
2022/06/08 21:14:16;;;;;;;;;;;15.20;99.90;;;;;;10219975;28;84028;-47
2022/06/08 21:19:17;;;;;;;;;;;15.30;99.90;;;;;;10245575;28;86476;-45
2022/06/08 21:24:17;;;;;;;;;;;15.30;99.90;;;;;;10231448;28;84824;-49
2022/06/08 21:29:18;;;;;;;;;;;15.20;99.90;;;;;;10250566;28;84869;-48
2022/06/08 21:34:18;;;;;;;;;;;15.10;99.90;;;;;;10250300;28;85155;-48
2022/06/08 21:39:21;;;;;;;;;;;15.00;99.90;;;;;;10249599;28;84155;-46
2022/06/08 21:44:23;;;;;;;;;;;15.00;99.90;;;;;;10236701;28;84735;-47
2022/06/08 21:49:24;;;;;;;;;;;15.00;99.90;;;;;;10210638;28;84074;-47
2022/06/08 21:54:25;;;;;;;;;;;15.00;99.90;;;;;;10228879;28;84254;-47
2022/06/08 21:59:25;;;;;;;;;;;14.90;99.90;;;;;;10250507;28;84214;-48
2022/06/08 22:04:29;;;;;;;;;;;14.90;99.90;;;;;;10249763;28;84937;-47
2022/06/08 22:09:30;;;;;;;;;;;14.90;99.90;;;;;;10250754;28;84175;-48
2022/06/08 22:14:31;;;;;;;;;;;14.90;99.90;;;;;;10231158;28;85080;-46
2022/06/08 22:19:31;;;;;;;;;;;14.90;99.90;;;;;;10208717;28;84292;-48
2022/06/08 22:24:33;;;;;;;;;;;14.80;99.90;;;;;;10224923;28;84332;-48
2022/06/08 22:29:33;;;;;;;;;;;14.80;99.90;;;;;;10246447;28;85938;-46
2022/06/08 22:34:34;;;;;;;;;;;14.80;99.90;;;;;;10230957;28;84915;-46
2022/06/08 22:39:34;;;;;;;;;;;14.70;99.90;;;;;;10206159;28;84060;-46
2022/06/08 22:44:35;;;;;;;;;;;14.70;99.90;;;;;;10224627;28;84063;-46
2022/06/08 22:49:36;;;;;;;;;;;14.70;99.90;;;;;;10247829;28;84181;-46
2022/06/08 22:54:36;;;;;;;;;;;14.70;99.90;;;;;;10230603;28;84912;-46
2022/06/08 22:59:37;;;;;;;;;;;14.70;99.90;;;;;;10205402;28;85619;-48
2022/06/08 23:04:37;;;;;;;;;;;14.70;99.90;;;;;;10223126;28;84918;-46
2022/06/08 23:09:38;;;;;;;;;;;14.70;99.90;;;;;;10247450;28;84144;-47
2022/06/08 23:14:39;;;;;;;;;;;14.70;99.90;;;;;;10230237;28;84102;-48
2022/06/08 23:24:59;;;;;;;;;;;14.70;99.90;;;;;;10226203;28;84119;-47
2022/06/08 23:30:00;;;;;;;;;;;14.70;99.90;;;;;;10246652;28;84359;-48
2022/06/08 23:35:01;;;;;;;;;;;14.80;99.90;;;;;;10225797;28;84937;-46
2022/06/08 23:40:02;;;;;;;;;;;14.80;99.90;;;;;;10206056;28;84161;-45
2022/06/08 23:45:03;;;;;;;;;;;14.90;99.90;;;;;;10225705;28;84225;-47
2022/06/08 23:55:23;;;;;;;;;;;14.90;99.90;;;;;;10244639;28;84896;-47
